SWR972 LFLL-LPFR
Flight info
| Callsign | SWR972 |
|---|---|
| Flight time | 2h 12m |
| Altitude | 33000 |
| Route | REPSI DCT LERGA DCT MINSO DCT NARAK DCT AGN/N0458F390 DCT MAQAB/N0465F410 DCT TIVLI N869 ZAR DCT KONKE DCT TERSA DCT CJN DCT VTB DCT INPAN DCT CRISA DCT HIJ DCT SVL DCT PIMUR N747 NAPES Y136 NIRAK |
| Aircraft | A339/H-SADE1E2E3GHIJ3J5M1P2RWXY/LB2D1 |
Departure
| Time | 2026-04-28 18:00 |
|---|---|
| Airport | Lyon Saint-Exupéry Airport (LFLL) |
Arrival
| Time | 2026-04-28 20:12 |
|---|---|
| Airport | Faro - Gago Coutinho International Airport (LPFR) |
| Time | Latitude | Longitude | Altitude | Speed | Heading |
|---|---|---|---|---|---|
| 2026-04-28 17:36 | 45.72102 | 5.08190 | 806 ft | 0 kts | 306° |
| 2026-04-28 17:50 | 45.72095 | 5.08200 | 806 ft | 1 kts | 338° |
| 2026-04-28 17:50 | 45.72081 | 5.08207 | 807 ft | 2 kts | 340° |
| 2026-04-28 17:50 | 45.72067 | 5.08215 | 807 ft | 2 kts | 336° |
| 2026-04-28 17:51 | 45.72058 | 5.08220 | 807 ft | 2 kts | 334° |
| 2026-04-28 17:51 | 45.72049 | 5.08235 | 807 ft | 2 kts | 281° |
| 2026-04-28 17:51 | 45.72051 | 5.08255 | 807 ft | 2 kts | 236° |
| 2026-04-28 17:51 | 45.72060 | 5.08267 | 807 ft | 0 kts | 197° |
| 2026-04-28 17:52 | 45.72065 | 5.08269 | 807 ft | 0 kts | 195° |
| 2026-04-28 17:53 | 45.72060 | 5.08267 | 807 ft | 1 kts | 195° |
| 2026-04-28 17:54 | 45.72040 | 5.08259 | 807 ft | 4 kts | 195° |
| 2026-04-28 17:54 | 45.72010 | 5.08257 | 808 ft | 4 kts | 168° |
| 2026-04-28 17:54 | 45.71981 | 5.08288 | 808 ft | 5 kts | 121° |
| 2026-04-28 17:54 | 45.71965 | 5.08343 | 809 ft | 6 kts | 112° |
| 2026-04-28 17:55 | 45.71949 | 5.08400 | 810 ft | 6 kts | 114° |
| 2026-04-28 17:55 | 45.71920 | 5.08446 | 811 ft | 6 kts | 150° |
| 2026-04-28 17:55 | 45.71873 | 5.08464 | 811 ft | 7 kts | 170° |
| 2026-04-28 17:55 | 45.71816 | 5.08474 | 812 ft | 8 kts | 174° |
| 2026-04-28 17:56 | 45.71754 | 5.08480 | 813 ft | 9 kts | 176° |
| 2026-04-28 17:56 | 45.71688 | 5.08486 | 814 ft | 9 kts | 176° |
| 2026-04-28 17:56 | 45.71618 | 5.08493 | 815 ft | 10 kts | 176° |
| 2026-04-28 17:56 | 45.71546 | 5.08502 | 816 ft | 10 kts | 174° |
| 2026-04-28 17:57 | 45.71471 | 5.08515 | 816 ft | 11 kts | 173° |
| 2026-04-28 17:57 | 45.71393 | 5.08526 | 818 ft | 11 kts | 175° |
| 2026-04-28 17:57 | 45.71315 | 5.08535 | 819 ft | 11 kts | 175° |
| 2026-04-28 17:57 | 45.71238 | 5.08546 | 821 ft | 10 kts | 174° |
| 2026-04-28 17:58 | 45.71165 | 5.08575 | 822 ft | 11 kts | 148° |
| 2026-04-28 17:58 | 45.71120 | 5.08663 | 825 ft | 10 kts | 112° |
| 2026-04-28 17:58 | 45.71097 | 5.08764 | 827 ft | 10 kts | 103° |
| 2026-04-28 17:58 | 45.71084 | 5.08857 | 829 ft | 9 kts | 100° |
| 2026-04-28 17:59 | 45.71085 | 5.08948 | 830 ft | 9 kts | 78° |
| 2026-04-28 17:59 | 45.71128 | 5.09009 | 830 ft | 8 kts | 14° |
| 2026-04-28 17:59 | 45.71179 | 5.09011 | 830 ft | 7 kts | 357° |
| 2026-04-28 17:59 | 45.71243 | 5.09007 | 829 ft | 10 kts | 358° |
| 2026-04-28 18:00 | 45.71484 | 5.08980 | 825 ft | 69 kts | 355° |
| 2026-04-28 18:00 | 45.72191 | 5.08899 | 815 ft | 131 kts | 356° |
| 2026-04-28 18:00 | 45.73232 | 5.08725 | 1019 ft | 159 kts | 7° |
| 2026-04-28 18:00 | 45.74344 | 5.08607 | 1537 ft | 163 kts | 1° |
| 2026-04-28 18:01 | 45.75486 | 5.08498 | 2037 ft | 169 kts | 9° |
| 2026-04-28 18:01 | 45.76655 | 5.08558 | 2671 ft | 167 kts | 9° |
| 2026-04-28 18:01 | 45.77845 | 5.08575 | 3157 ft | 182 kts | 354° |
| 2026-04-28 18:01 | 45.79153 | 5.08293 | 3592 ft | 199 kts | 352° |
| 2026-04-28 18:02 | 45.80596 | 5.07982 | 4020 ft | 218 kts | 353° |
| 2026-04-28 18:02 | 45.82158 | 5.07710 | 4482 ft | 236 kts | 354° |
| 2026-04-28 18:02 | 45.83856 | 5.07466 | 4966 ft | 254 kts | 354° |
| 2026-04-28 18:02 | 45.85665 | 5.07230 | 5466 ft | 272 kts | 354° |
| 2026-04-28 18:03 | 45.87534 | 5.06735 | 6169 ft | 278 kts | 335° |
| 2026-04-28 18:03 | 45.89069 | 5.05097 | 7001 ft | 278 kts | 307° |
| 2026-04-28 18:03 | 45.89908 | 5.02681 | 7834 ft | 275 kts | 280° |
| 2026-04-28 18:03 | 45.89916 | 4.99988 | 8656 ft | 274 kts | 255° |
| 2026-04-28 18:04 | 45.89643 | 4.98826 | 9027 ft | 274 kts | 244° |
| 2026-04-28 18:04 | 45.88944 | 4.97089 | 9639 ft | 274 kts | 238° |
| 2026-04-28 18:04 | 45.88128 | 4.95195 | 10302 ft | 276 kts | 238° |
| 2026-04-28 18:04 | 45.87107 | 4.92809 | 10816 ft | 290 kts | 238° |
| 2026-04-28 18:05 | 45.86038 | 4.90288 | 11254 ft | 305 kts | 239° |
| 2026-04-28 18:05 | 45.85293 | 4.88525 | 11707 ft | 310 kts | 238° |
| 2026-04-28 18:05 | 45.83810 | 4.85007 | 12787 ft | 313 kts | 238° |
| 2026-04-28 18:05 | 45.82692 | 4.82353 | 13576 ft | 315 kts | 238° |
| 2026-04-28 18:06 | 45.81556 | 4.79633 | 14332 ft | 319 kts | 239° |
| 2026-04-28 18:06 | 45.80418 | 4.76901 | 15076 ft | 322 kts | 239° |
| 2026-04-28 18:06 | 45.79267 | 4.74136 | 15811 ft | 326 kts | 238° |
| 2026-04-28 18:06 | 45.78026 | 4.71454 | 16510 ft | 330 kts | 234° |
| 2026-04-28 18:07 | 45.76621 | 4.68827 | 17206 ft | 334 kts | 231° |
| 2026-04-28 18:07 | 45.75129 | 4.66273 | 17890 ft | 338 kts | 230° |
| 2026-04-28 18:07 | 45.73612 | 4.63686 | 18568 ft | 342 kts | 230° |
| 2026-04-28 18:07 | 45.72095 | 4.61101 | 19261 ft | 345 kts | 230° |
| 2026-04-28 18:08 | 45.70534 | 4.58447 | 19955 ft | 348 kts | 230° |
| 2026-04-28 18:08 | 45.68993 | 4.55831 | 20634 ft | 351 kts | 230° |
| 2026-04-28 18:08 | 45.67420 | 4.53162 | 21296 ft | 353 kts | 230° |
| 2026-04-28 18:08 | 45.65825 | 4.50460 | 21929 ft | 356 kts | 230° |
| 2026-04-28 18:09 | 45.64238 | 4.47769 | 22544 ft | 359 kts | 230° |
| 2026-04-28 18:09 | 45.62624 | 4.45037 | 23152 ft | 362 kts | 230° |
| 2026-04-28 18:09 | 45.60998 | 4.42286 | 23761 ft | 365 kts | 230° |
| 2026-04-28 18:09 | 45.59362 | 4.39521 | 24347 ft | 367 kts | 230° |
| 2026-04-28 18:10 | 45.57705 | 4.36725 | 24914 ft | 370 kts | 230° |
| 2026-04-28 18:10 | 45.56039 | 4.33918 | 25483 ft | 372 kts | 230° |
| 2026-04-28 18:10 | 45.54372 | 4.31111 | 26064 ft | 374 kts | 230° |
| 2026-04-28 18:10 | 45.52685 | 4.28233 | 26595 ft | 376 kts | 231° |
| 2026-04-28 18:11 | 45.51120 | 4.25283 | 27118 ft | 378 kts | 234° |
| 2026-04-28 18:11 | 45.49580 | 4.22218 | 27623 ft | 380 kts | 234° |
| 2026-04-28 18:11 | 45.48045 | 4.19167 | 28096 ft | 383 kts | 234° |
| 2026-04-28 18:11 | 45.46505 | 4.16105 | 28556 ft | 385 kts | 234° |
| 2026-04-28 18:12 | 45.44947 | 4.13008 | 29010 ft | 388 kts | 234° |
| 2026-04-28 18:12 | 45.43365 | 4.09863 | 29442 ft | 391 kts | 234° |
| 2026-04-28 18:12 | 45.41779 | 4.06716 | 29882 ft | 393 kts | 234° |
| 2026-04-28 18:12 | 45.40195 | 4.03574 | 30300 ft | 395 kts | 234° |
| 2026-04-28 18:13 | 45.38571 | 4.00356 | 30711 ft | 398 kts | 234° |
| 2026-04-28 18:13 | 45.36972 | 3.97194 | 31116 ft | 400 kts | 234° |
| 2026-04-28 18:13 | 45.35332 | 3.93951 | 31535 ft | 402 kts | 234° |
| 2026-04-28 18:13 | 45.33711 | 3.90750 | 31929 ft | 404 kts | 234° |
| 2026-04-28 18:14 | 45.32074 | 3.87519 | 32307 ft | 406 kts | 234° |
| 2026-04-28 18:14 | 45.30413 | 3.84244 | 32666 ft | 408 kts | 234° |
| 2026-04-28 18:14 | 45.28751 | 3.80972 | 32949 ft | 411 kts | 234° |
| 2026-04-28 18:14 | 45.27088 | 3.77703 | 32975 ft | 410 kts | 234° |
| 2026-04-28 18:15 | 45.23779 | 3.71119 | 32983 ft | 410 kts | 236° |
| 2026-04-28 18:15 | 45.20530 | 3.64509 | 33262 ft | 414 kts | 236° |
| 2026-04-28 18:16 | 45.18869 | 3.61136 | 33667 ft | 415 kts | 236° |
| 2026-04-28 18:16 | 45.17214 | 3.57779 | 34011 ft | 417 kts | 236° |
| 2026-04-28 18:16 | 45.15554 | 3.54416 | 34342 ft | 418 kts | 236° |
| 2026-04-28 18:16 | 45.13896 | 3.51065 | 34615 ft | 420 kts | 236° |
| 2026-04-28 18:17 | 45.12206 | 3.47650 | 34856 ft | 423 kts | 236° |
| 2026-04-28 18:17 | 45.10534 | 3.44282 | 35096 ft | 424 kts | 236° |
| 2026-04-28 18:17 | 45.08829 | 3.40849 | 35304 ft | 427 kts | 236° |
| 2026-04-28 18:17 | 45.07122 | 3.37415 | 35530 ft | 429 kts | 236° |
| 2026-04-28 18:18 | 45.05418 | 3.33991 | 35814 ft | 429 kts | 235° |
| 2026-04-28 18:18 | 45.03699 | 3.30543 | 36123 ft | 428 kts | 235° |
| 2026-04-28 18:18 | 45.01998 | 3.27132 | 36417 ft | 428 kts | 235° |
| 2026-04-28 18:18 | 45.00864 | 3.24859 | 36656 ft | 427 kts | 236° |
| 2026-04-28 18:19 | 44.98577 | 3.20285 | 37122 ft | 427 kts | 236° |
| 2026-04-28 18:19 | 44.96877 | 3.16885 | 37475 ft | 427 kts | 236° |
| 2026-04-28 18:19 | 44.95155 | 3.13448 | 37806 ft | 427 kts | 236° |
| 2026-04-28 18:19 | 44.93445 | 3.10039 | 38121 ft | 427 kts | 236° |
| 2026-04-28 18:20 | 44.91724 | 3.06612 | 38417 ft | 427 kts | 236° |
| 2026-04-28 18:20 | 44.90012 | 3.03203 | 38708 ft | 426 kts | 236° |
| 2026-04-28 18:20 | 44.88310 | 2.99824 | 38967 ft | 427 kts | 236° |
| 2026-04-28 18:20 | 44.86601 | 2.96433 | 39222 ft | 427 kts | 236° |
| 2026-04-28 18:21 | 44.84894 | 2.93018 | 39508 ft | 426 kts | 237° |
| 2026-04-28 18:21 | 44.83277 | 2.89540 | 39754 ft | 425 kts | 238° |
| 2026-04-28 18:21 | 44.81668 | 2.86048 | 39858 ft | 427 kts | 238° |
| 2026-04-28 18:21 | 44.80035 | 2.82507 | 39932 ft | 431 kts | 238° |
| 2026-04-28 18:22 | 44.76773 | 2.75445 | 40070 ft | 436 kts | 238° |
| 2026-04-28 18:22 | 44.73454 | 2.68275 | 40205 ft | 441 kts | 238° |
| 2026-04-28 18:23 | 44.70099 | 2.61043 | 40426 ft | 443 kts | 238° |
| 2026-04-28 18:23 | 44.68416 | 2.57419 | 40557 ft | 443 kts | 238° |
| 2026-04-28 18:23 | 44.66742 | 2.53819 | 40682 ft | 444 kts | 238° |
| 2026-04-28 18:24 | 44.65052 | 2.50189 | 40784 ft | 445 kts | 238° |
| 2026-04-28 18:24 | 44.63913 | 2.47748 | 40854 ft | 446 kts | 238° |
| 2026-04-28 18:24 | 44.59938 | 2.39233 | 40956 ft | 447 kts | 238° |
| 2026-04-28 18:25 | 44.56533 | 2.31962 | 40962 ft | 447 kts | 237° |
| 2026-04-28 18:26 | 44.51408 | 2.21051 | 40956 ft | 447 kts | 237° |
| 2026-04-28 18:26 | 44.47990 | 2.13795 | 40952 ft | 446 kts | 237° |
| 2026-04-28 18:27 | 44.44580 | 2.06575 | 40951 ft | 446 kts | 237° |
| 2026-04-28 18:27 | 44.41165 | 1.99362 | 40939 ft | 446 kts | 237° |
| 2026-04-28 18:28 | 44.37730 | 1.92122 | 40938 ft | 446 kts | 237° |
| 2026-04-28 18:28 | 44.34309 | 1.84928 | 40940 ft | 447 kts | 237° |
| 2026-04-28 18:29 | 44.30863 | 1.77701 | 40938 ft | 446 kts | 237° |
| 2026-04-28 18:29 | 44.27454 | 1.70456 | 40929 ft | 446 kts | 238° |
| 2026-04-28 18:30 | 44.24128 | 1.63196 | 40928 ft | 446 kts | 238° |
| 2026-04-28 18:30 | 44.20780 | 1.55904 | 40922 ft | 446 kts | 238° |
| 2026-04-28 18:31 | 44.17433 | 1.48645 | 40927 ft | 446 kts | 238° |
| 2026-04-28 18:31 | 44.14072 | 1.41378 | 40912 ft | 446 kts | 238° |
| 2026-04-28 18:32 | 44.10724 | 1.34158 | 40907 ft | 446 kts | 238° |
| 2026-04-28 18:32 | 44.07363 | 1.26926 | 40902 ft | 446 kts | 238° |
| 2026-04-28 18:33 | 44.03992 | 1.19688 | 40901 ft | 446 kts | 238° |
| 2026-04-28 18:33 | 44.00644 | 1.12517 | 40907 ft | 446 kts | 237° |
| 2026-04-28 18:34 | 43.97272 | 1.05309 | 40897 ft | 445 kts | 238° |
| 2026-04-28 18:34 | 43.93908 | 0.98143 | 40899 ft | 445 kts | 237° |
| 2026-04-28 18:35 | 43.90351 | 0.91158 | 40905 ft | 446 kts | 232° |
| 2026-04-28 18:35 | 43.86275 | 0.84623 | 40916 ft | 448 kts | 227° |
| 2026-04-28 18:36 | 43.81796 | 0.78716 | 40918 ft | 449 kts | 223° |
| 2026-04-28 18:36 | 43.77137 | 0.72950 | 40912 ft | 449 kts | 224° |
| 2026-04-28 18:37 | 43.72489 | 0.67204 | 40930 ft | 449 kts | 223° |
| 2026-04-28 18:37 | 43.67839 | 0.61476 | 40931 ft | 449 kts | 223° |
| 2026-04-28 18:38 | 43.63161 | 0.55729 | 40928 ft | 449 kts | 223° |
| 2026-04-28 18:38 | 43.58525 | 0.50049 | 40919 ft | 449 kts | 223° |
| 2026-04-28 18:39 | 43.53843 | 0.44325 | 40929 ft | 449 kts | 223° |
| 2026-04-28 18:39 | 43.49192 | 0.38647 | 40919 ft | 449 kts | 223° |
| 2026-04-28 18:40 | 43.44495 | 0.32927 | 40935 ft | 449 kts | 223° |
| 2026-04-28 18:40 | 43.39841 | 0.27277 | 40934 ft | 450 kts | 223° |
| 2026-04-28 18:41 | 43.35138 | 0.21597 | 40941 ft | 450 kts | 223° |
| 2026-04-28 18:41 | 43.30442 | 0.15932 | 40936 ft | 450 kts | 223° |
| 2026-04-28 18:42 | 43.25743 | 0.10273 | 40933 ft | 450 kts | 223° |
| 2026-04-28 18:42 | 43.21064 | 0.04645 | 40942 ft | 449 kts | 223° |
| 2026-04-28 18:43 | 43.16350 | -0.01015 | 40936 ft | 449 kts | 222° |
| 2026-04-28 18:43 | 43.11661 | -0.06631 | 40967 ft | 450 kts | 222° |
| 2026-04-28 18:44 | 43.06962 | -0.12246 | 40954 ft | 450 kts | 222° |
| 2026-04-28 18:44 | 42.99902 | -0.20664 | 40964 ft | 450 kts | 222° |
| 2026-04-28 18:45 | 42.95162 | -0.26303 | 40967 ft | 450 kts | 222° |
| 2026-04-28 18:45 | 42.90449 | -0.31895 | 40982 ft | 450 kts | 222° |
| 2026-04-28 18:46 | 42.85634 | -0.37330 | 40996 ft | 451 kts | 218° |
| 2026-04-28 18:46 | 42.80433 | -0.42149 | 41001 ft | 453 kts | 213° |
| 2026-04-28 18:47 | 42.74887 | -0.46262 | 40995 ft | 454 kts | 208° |
| 2026-04-28 18:47 | 42.69111 | -0.49593 | 40993 ft | 455 kts | 203° |
| 2026-04-28 18:48 | 42.63176 | -0.52722 | 40982 ft | 455 kts | 204° |
| 2026-04-28 18:48 | 42.57314 | -0.55811 | 40964 ft | 455 kts | 204° |
| 2026-04-28 18:49 | 42.52356 | -0.58414 | 40955 ft | 455 kts | 204° |
| 2026-04-28 18:49 | 42.45481 | -0.62014 | 40940 ft | 456 kts | 203° |
| 2026-04-28 18:50 | 42.39588 | -0.65091 | 40934 ft | 455 kts | 202° |
| 2026-04-28 18:50 | 42.33684 | -0.68166 | 40925 ft | 456 kts | 203° |
| 2026-04-28 18:51 | 42.27765 | -0.71244 | 40911 ft | 456 kts | 203° |
| 2026-04-28 18:51 | 42.21814 | -0.74333 | 40893 ft | 456 kts | 203° |
| 2026-04-28 18:52 | 42.15877 | -0.77410 | 40891 ft | 456 kts | 202° |
| 2026-04-28 18:52 | 42.09990 | -0.80456 | 40899 ft | 456 kts | 202° |
| 2026-04-28 18:53 | 42.04044 | -0.83524 | 40892 ft | 457 kts | 202° |
| 2026-04-28 18:53 | 41.98111 | -0.86574 | 40891 ft | 457 kts | 202° |
| 2026-04-28 18:54 | 41.92142 | -0.89633 | 40893 ft | 456 kts | 202° |
| 2026-04-28 18:54 | 41.86221 | -0.92666 | 40887 ft | 457 kts | 202° |
| 2026-04-28 18:55 | 41.81277 | -0.95196 | 40892 ft | 458 kts | 202° |
| 2026-04-28 18:55 | 41.74353 | -0.98781 | 40877 ft | 457 kts | 205° |
| 2026-04-28 18:56 | 41.68646 | -1.02471 | 40881 ft | 455 kts | 211° |
| 2026-04-28 18:56 | 41.63261 | -1.06947 | 40881 ft | 455 kts | 216° |
| 2026-04-28 18:57 | 41.58305 | -1.12104 | 40883 ft | 453 kts | 222° |
| 2026-04-28 18:57 | 41.53638 | -1.17711 | 40886 ft | 453 kts | 223° |
| 2026-04-28 18:58 | 41.48938 | -1.23364 | 40880 ft | 453 kts | 223° |
| 2026-04-28 18:58 | 41.44260 | -1.28981 | 40888 ft | 454 kts | 223° |
| 2026-04-28 18:59 | 41.39598 | -1.34569 | 40899 ft | 454 kts | 223° |
| 2026-04-28 18:59 | 41.34904 | -1.40186 | 40910 ft | 453 kts | 223° |
| 2026-04-28 19:00 | 41.30234 | -1.45763 | 40918 ft | 453 kts | 223° |
| 2026-04-28 19:00 | 41.25554 | -1.51342 | 40921 ft | 453 kts | 223° |
| 2026-04-28 19:01 | 41.20861 | -1.56925 | 40934 ft | 453 kts | 223° |
| 2026-04-28 19:01 | 41.16181 | -1.62481 | 40935 ft | 453 kts | 223° |
| 2026-04-28 19:02 | 41.11465 | -1.68072 | 40946 ft | 453 kts | 223° |
| 2026-04-28 19:02 | 41.06752 | -1.73650 | 40947 ft | 453 kts | 222° |
| 2026-04-28 19:03 | 41.02073 | -1.79167 | 40956 ft | 453 kts | 222° |
| 2026-04-28 19:03 | 40.97362 | -1.84699 | 40963 ft | 452 kts | 222° |
| 2026-04-28 19:04 | 40.92668 | -1.90206 | 40964 ft | 452 kts | 222° |
| 2026-04-28 19:04 | 40.87973 | -1.95708 | 40966 ft | 453 kts | 222° |
| 2026-04-28 19:05 | 40.83237 | -2.01252 | 40970 ft | 453 kts | 222° |
| 2026-04-28 19:05 | 40.78550 | -2.06727 | 40966 ft | 453 kts | 223° |
| 2026-04-28 19:06 | 40.74598 | -2.11333 | 40965 ft | 452 kts | 223° |
| 2026-04-28 19:06 | 40.69118 | -2.17693 | 40966 ft | 452 kts | 222° |
| 2026-04-28 19:07 | 40.64394 | -2.23154 | 40964 ft | 452 kts | 223° |
| 2026-04-28 19:07 | 40.59675 | -2.28605 | 40957 ft | 452 kts | 223° |
| 2026-04-28 19:08 | 40.54978 | -2.34024 | 40958 ft | 452 kts | 223° |
| 2026-04-28 19:08 | 40.50267 | -2.39452 | 40946 ft | 451 kts | 223° |
| 2026-04-28 19:09 | 40.45545 | -2.44883 | 40952 ft | 452 kts | 223° |
| 2026-04-28 19:09 | 40.40796 | -2.50333 | 40939 ft | 451 kts | 223° |
| 2026-04-28 19:10 | 40.36312 | -2.56044 | 40945 ft | 451 kts | 228° |
| 2026-04-28 19:10 | 40.32215 | -2.62281 | 40940 ft | 450 kts | 231° |
| 2026-04-28 19:11 | 40.28220 | -2.68556 | 40945 ft | 449 kts | 230° |
| 2026-04-28 19:11 | 40.24226 | -2.74819 | 40938 ft | 448 kts | 230° |
| 2026-04-28 19:12 | 40.20242 | -2.81060 | 40930 ft | 447 kts | 230° |
| 2026-04-28 19:12 | 40.16257 | -2.87289 | 40934 ft | 447 kts | 230° |
| 2026-04-28 19:13 | 40.12247 | -2.93547 | 40930 ft | 447 kts | 231° |
| 2026-04-28 19:13 | 40.08270 | -2.99742 | 40940 ft | 447 kts | 230° |
| 2026-04-28 19:14 | 40.04277 | -3.05950 | 40920 ft | 446 kts | 230° |
| 2026-04-28 19:14 | 40.00300 | -3.12121 | 40928 ft | 446 kts | 230° |
| 2026-04-28 19:15 | 39.96312 | -3.18296 | 40920 ft | 446 kts | 230° |
| 2026-04-28 19:15 | 39.92979 | -3.23448 | 40916 ft | 446 kts | 230° |
| 2026-04-28 19:16 | 39.88302 | -3.30666 | 40906 ft | 446 kts | 230° |
| 2026-04-28 19:16 | 39.84285 | -3.36852 | 40906 ft | 446 kts | 230° |
| 2026-04-28 19:17 | 39.80280 | -3.43004 | 40906 ft | 446 kts | 230° |
| 2026-04-28 19:17 | 39.76112 | -3.48955 | 40901 ft | 446 kts | 226° |
| 2026-04-28 19:18 | 39.71736 | -3.54721 | 40905 ft | 448 kts | 226° |
| 2026-04-28 19:18 | 39.67363 | -3.60485 | 40902 ft | 447 kts | 226° |
| 2026-04-28 19:19 | 39.62983 | -3.66247 | 40902 ft | 447 kts | 225° |
| 2026-04-28 19:19 | 39.58611 | -3.71981 | 40901 ft | 449 kts | 225° |
| 2026-04-28 19:20 | 39.54215 | -3.77725 | 40902 ft | 449 kts | 225° |
| 2026-04-28 19:20 | 39.49817 | -3.83459 | 40896 ft | 451 kts | 225° |
| 2026-04-28 19:21 | 39.45434 | -3.89169 | 40891 ft | 451 kts | 225° |
| 2026-04-28 19:21 | 39.41002 | -3.94934 | 40890 ft | 451 kts | 225° |
| 2026-04-28 19:22 | 39.37311 | -3.99728 | 40889 ft | 451 kts | 225° |
| 2026-04-28 19:22 | 39.32144 | -4.06426 | 40887 ft | 452 kts | 225° |
| 2026-04-28 19:23 | 39.27731 | -4.12138 | 40871 ft | 452 kts | 225° |
| 2026-04-28 19:23 | 39.23288 | -4.17872 | 40876 ft | 453 kts | 225° |
| 2026-04-28 19:24 | 39.18834 | -4.23616 | 40870 ft | 453 kts | 225° |
| 2026-04-28 19:24 | 39.14389 | -4.29336 | 40864 ft | 453 kts | 225° |
| 2026-04-28 19:25 | 39.09930 | -4.35062 | 40875 ft | 453 kts | 225° |
| 2026-04-28 19:25 | 39.05454 | -4.40805 | 40873 ft | 455 kts | 225° |
| 2026-04-28 19:26 | 39.00966 | -4.46551 | 40869 ft | 455 kts | 225° |
| 2026-04-28 19:26 | 38.96463 | -4.52305 | 40870 ft | 455 kts | 225° |
| 2026-04-28 19:27 | 38.91975 | -4.58021 | 40852 ft | 454 kts | 224° |
| 2026-04-28 19:27 | 38.87505 | -4.63690 | 40866 ft | 455 kts | 225° |
| 2026-04-28 19:28 | 38.82991 | -4.69414 | 40877 ft | 455 kts | 224° |
| 2026-04-28 19:28 | 38.78508 | -4.75094 | 40863 ft | 455 kts | 224° |
| 2026-04-28 19:29 | 38.74751 | -4.79847 | 40863 ft | 455 kts | 224° |
| 2026-04-28 19:29 | 38.69501 | -4.86477 | 40854 ft | 455 kts | 224° |
| 2026-04-28 19:30 | 38.65009 | -4.92140 | 40861 ft | 454 kts | 224° |
| 2026-04-28 19:30 | 38.60537 | -4.97764 | 40861 ft | 454 kts | 224° |
| 2026-04-28 19:31 | 38.55989 | -5.03341 | 40855 ft | 454 kts | 221° |
| 2026-04-28 19:31 | 38.51070 | -5.08392 | 40859 ft | 454 kts | 216° |
| 2026-04-28 19:32 | 38.45776 | -5.12796 | 40865 ft | 454 kts | 210° |
| 2026-04-28 19:32 | 38.40190 | -5.16508 | 40864 ft | 454 kts | 206° |
| 2026-04-28 19:33 | 38.34512 | -5.20041 | 40852 ft | 454 kts | 206° |
| 2026-04-28 19:33 | 38.28859 | -5.23553 | 40862 ft | 453 kts | 206° |
| 2026-04-28 19:34 | 38.23193 | -5.27064 | 40876 ft | 453 kts | 206° |
| 2026-04-28 19:34 | 38.17522 | -5.30567 | 40868 ft | 453 kts | 206° |
| 2026-04-28 19:35 | 38.11880 | -5.34048 | 40867 ft | 454 kts | 206° |
| 2026-04-28 19:35 | 38.06201 | -5.37544 | 40872 ft | 454 kts | 206° |
| 2026-04-28 19:36 | 38.00498 | -5.41050 | 40861 ft | 455 kts | 206° |
| 2026-04-28 19:36 | 37.94809 | -5.44542 | 40873 ft | 455 kts | 206° |
| 2026-04-28 19:37 | 37.90074 | -5.47443 | 40864 ft | 455 kts | 206° |
| 2026-04-28 19:37 | 37.83422 | -5.51511 | 40874 ft | 454 kts | 206° |
| 2026-04-28 19:38 | 37.77758 | -5.54970 | 40859 ft | 454 kts | 206° |
| 2026-04-28 19:38 | 37.72081 | -5.58431 | 40853 ft | 454 kts | 206° |
| 2026-04-28 19:39 | 37.66414 | -5.61882 | 40854 ft | 455 kts | 206° |
| 2026-04-28 19:39 | 37.60713 | -5.65347 | 40855 ft | 455 kts | 206° |
| 2026-04-28 19:40 | 37.55022 | -5.68800 | 40845 ft | 448 kts | 206° |
| 2026-04-28 19:40 | 37.49607 | -5.72492 | 40594 ft | 441 kts | 215° |
| 2026-04-28 19:41 | 37.47214 | -5.74917 | 40356 ft | 438 kts | 222° |
| 2026-04-28 19:41 | 37.45132 | -5.77665 | 40113 ft | 436 kts | 230° |
| 2026-04-28 19:41 | 37.43348 | -5.80729 | 39766 ft | 434 kts | 237° |
| 2026-04-28 19:41 | 37.41907 | -5.84032 | 39279 ft | 435 kts | 244° |
| 2026-04-28 19:42 | 37.40810 | -5.87570 | 38772 ft | 435 kts | 251° |
| 2026-04-28 19:42 | 37.40056 | -5.91204 | 38276 ft | 435 kts | 254° |
| 2026-04-28 19:42 | 37.39384 | -5.94938 | 37731 ft | 434 kts | 255° |
| 2026-04-28 19:42 | 37.38954 | -5.97383 | 37377 ft | 433 kts | 255° |
| 2026-04-28 19:43 | 37.38091 | -6.02285 | 36659 ft | 431 kts | 255° |
| 2026-04-28 19:43 | 37.37445 | -6.05929 | 36177 ft | 430 kts | 254° |
| 2026-04-28 19:43 | 37.36791 | -6.09592 | 35686 ft | 431 kts | 254° |
| 2026-04-28 19:43 | 37.36134 | -6.13258 | 35140 ft | 433 kts | 254° |
| 2026-04-28 19:44 | 37.35475 | -6.16922 | 34574 ft | 435 kts | 253° |
| 2026-04-28 19:44 | 37.34803 | -6.20655 | 33938 ft | 436 kts | 253° |
| 2026-04-28 19:44 | 37.34139 | -6.24328 | 33503 ft | 432 kts | 253° |
| 2026-04-28 19:44 | 37.33477 | -6.27981 | 33145 ft | 427 kts | 253° |
| 2026-04-28 19:45 | 37.32824 | -6.31582 | 32786 ft | 423 kts | 253° |
| 2026-04-28 19:45 | 37.32176 | -6.35152 | 32429 ft | 418 kts | 254° |
| 2026-04-28 19:45 | 37.31536 | -6.38674 | 32077 ft | 414 kts | 253° |
| 2026-04-28 19:45 | 37.30900 | -6.42166 | 31719 ft | 410 kts | 254° |
| 2026-04-28 19:46 | 37.30268 | -6.45624 | 31367 ft | 407 kts | 254° |
| 2026-04-28 19:46 | 37.29638 | -6.49066 | 31010 ft | 403 kts | 254° |
| 2026-04-28 19:46 | 37.29012 | -6.52479 | 30662 ft | 399 kts | 254° |
| 2026-04-28 19:46 | 37.28386 | -6.55873 | 30308 ft | 396 kts | 254° |
| 2026-04-28 19:47 | 37.27776 | -6.59185 | 29955 ft | 393 kts | 254° |
| 2026-04-28 19:47 | 37.27159 | -6.62528 | 29602 ft | 390 kts | 254° |
| 2026-04-28 19:47 | 37.26542 | -6.65864 | 29254 ft | 388 kts | 253° |
| 2026-04-28 19:47 | 37.25935 | -6.69144 | 28899 ft | 385 kts | 254° |
| 2026-04-28 19:48 | 37.25334 | -6.72384 | 28550 ft | 383 kts | 254° |
| 2026-04-28 19:48 | 37.24729 | -6.75644 | 28204 ft | 381 kts | 254° |
| 2026-04-28 19:48 | 37.24134 | -6.78839 | 27858 ft | 378 kts | 254° |
| 2026-04-28 19:48 | 37.23543 | -6.82013 | 27525 ft | 376 kts | 254° |
| 2026-04-28 19:49 | 37.22947 | -6.85202 | 27183 ft | 374 kts | 254° |
| 2026-04-28 19:49 | 37.22355 | -6.88367 | 26843 ft | 372 kts | 254° |
| 2026-04-28 19:49 | 37.21770 | -6.91490 | 26499 ft | 370 kts | 254° |
| 2026-04-28 19:49 | 37.21187 | -6.94603 | 26153 ft | 368 kts | 254° |
| 2026-04-28 19:50 | 37.20114 | -7.00864 | 25461 ft | 366 kts | 261° |
| 2026-04-28 19:50 | 37.19951 | -7.04023 | 25111 ft | 366 kts | 268° |
| 2026-04-28 19:50 | 37.20116 | -7.07195 | 24776 ft | 366 kts | 275° |
| 2026-04-28 19:51 | 37.20483 | -7.10318 | 24423 ft | 366 kts | 276° |
| 2026-04-28 19:51 | 37.20889 | -7.13455 | 24049 ft | 365 kts | 277° |
| 2026-04-28 19:51 | 37.21299 | -7.16609 | 23676 ft | 363 kts | 277° |
| 2026-04-28 19:51 | 37.21696 | -7.19706 | 23324 ft | 362 kts | 276° |
| 2026-04-28 19:52 | 37.22092 | -7.22828 | 22984 ft | 359 kts | 277° |
| 2026-04-28 19:52 | 37.22475 | -7.25875 | 22648 ft | 357 kts | 276° |
| 2026-04-28 19:52 | 37.22861 | -7.28957 | 22311 ft | 355 kts | 276° |
| 2026-04-28 19:52 | 37.23238 | -7.31982 | 21980 ft | 353 kts | 276° |
| 2026-04-28 19:53 | 37.23612 | -7.35008 | 21643 ft | 351 kts | 276° |
| 2026-04-28 19:53 | 37.23984 | -7.38011 | 21312 ft | 349 kts | 276° |
| 2026-04-28 19:53 | 37.24400 | -7.41018 | 20979 ft | 348 kts | 279° |
| 2026-04-28 19:53 | 37.24955 | -7.43975 | 20648 ft | 347 kts | 282° |
| 2026-04-28 19:54 | 37.25645 | -7.46849 | 20375 ft | 345 kts | 285° |
| 2026-04-28 19:54 | 37.26408 | -7.49719 | 20066 ft | 343 kts | 286° |
| 2026-04-28 19:54 | 37.27161 | -7.52529 | 19748 ft | 341 kts | 286° |
| 2026-04-28 19:54 | 37.27916 | -7.55338 | 19431 ft | 339 kts | 286° |
| 2026-04-28 19:55 | 37.28663 | -7.58130 | 19109 ft | 337 kts | 286° |
| 2026-04-28 19:55 | 37.29401 | -7.60897 | 18789 ft | 336 kts | 286° |
| 2026-04-28 19:55 | 37.30144 | -7.63683 | 18458 ft | 334 kts | 286° |
| 2026-04-28 19:55 | 37.30875 | -7.66428 | 18139 ft | 332 kts | 285° |
| 2026-04-28 19:56 | 37.31604 | -7.69173 | 17819 ft | 331 kts | 285° |
| 2026-04-28 19:56 | 37.32326 | -7.71888 | 17497 ft | 330 kts | 285° |
| 2026-04-28 19:56 | 37.33052 | -7.74624 | 17172 ft | 329 kts | 285° |
| 2026-04-28 19:56 | 37.33769 | -7.77331 | 16843 ft | 327 kts | 285° |
| 2026-04-28 19:57 | 37.34483 | -7.80030 | 16511 ft | 326 kts | 285° |
| 2026-04-28 19:57 | 37.35199 | -7.82737 | 16184 ft | 325 kts | 285° |
| 2026-04-28 19:57 | 37.35907 | -7.85419 | 15859 ft | 324 kts | 285° |
| 2026-04-28 19:57 | 37.36607 | -7.88073 | 15530 ft | 323 kts | 285° |
| 2026-04-28 19:58 | 37.37313 | -7.90748 | 15201 ft | 322 kts | 285° |
| 2026-04-28 19:58 | 37.38015 | -7.93413 | 14875 ft | 321 kts | 285° |
| 2026-04-28 19:58 | 37.38717 | -7.96080 | 14546 ft | 320 kts | 285° |
| 2026-04-28 19:58 | 37.39406 | -7.98701 | 14229 ft | 319 kts | 285° |
| 2026-04-28 19:59 | 37.40102 | -8.01351 | 13904 ft | 317 kts | 285° |
| 2026-04-28 19:59 | 37.40794 | -8.03994 | 13583 ft | 316 kts | 285° |
| 2026-04-28 19:59 | 37.41472 | -8.06586 | 13269 ft | 315 kts | 285° |
| 2026-04-28 19:59 | 37.42154 | -8.09199 | 12953 ft | 314 kts | 285° |
| 2026-04-28 20:00 | 37.42836 | -8.11811 | 12627 ft | 313 kts | 285° |
| 2026-04-28 20:00 | 37.43508 | -8.14382 | 12310 ft | 312 kts | 285° |
| 2026-04-28 20:00 | 37.44184 | -8.16973 | 11989 ft | 311 kts | 285° |
| 2026-04-28 20:00 | 37.44852 | -8.19539 | 11660 ft | 310 kts | 285° |
| 2026-04-28 20:01 | 37.45519 | -8.22098 | 11340 ft | 309 kts | 285° |
| 2026-04-28 20:01 | 37.46185 | -8.24661 | 11016 ft | 308 kts | 285° |
| 2026-04-28 20:01 | 37.46840 | -8.27176 | 10849 ft | 300 kts | 285° |
| 2026-04-28 20:01 | 37.47482 | -8.29642 | 10849 ft | 288 kts | 285° |
| 2026-04-28 20:02 | 37.47975 | -8.32005 | 10831 ft | 273 kts | 270° |
| 2026-04-28 20:02 | 37.47586 | -8.34215 | 10836 ft | 255 kts | 239° |
| 2026-04-28 20:02 | 37.46442 | -8.35815 | 10802 ft | 244 kts | 214° |
| 2026-04-28 20:02 | 37.44859 | -8.36598 | 10447 ft | 249 kts | 188° |
| 2026-04-28 20:03 | 37.43125 | -8.36411 | 10113 ft | 254 kts | 169° |
| 2026-04-28 20:03 | 37.41389 | -8.35872 | 9806 ft | 257 kts | 168° |
| 2026-04-28 20:03 | 37.39664 | -8.35335 | 9503 ft | 259 kts | 168° |
| 2026-04-28 20:03 | 37.37912 | -8.34796 | 9191 ft | 261 kts | 168° |
| 2026-04-28 20:04 | 37.36144 | -8.34254 | 8878 ft | 262 kts | 168° |
| 2026-04-28 20:04 | 37.34351 | -8.33709 | 8560 ft | 264 kts | 168° |
| 2026-04-28 20:04 | 37.32568 | -8.33168 | 8240 ft | 266 kts | 168° |
| 2026-04-28 20:04 | 37.30747 | -8.32616 | 7913 ft | 268 kts | 168° |
| 2026-04-28 20:05 | 37.28944 | -8.32069 | 7585 ft | 269 kts | 168° |
| 2026-04-28 20:05 | 37.27123 | -8.31516 | 7255 ft | 265 kts | 168° |
| 2026-04-28 20:05 | 37.25351 | -8.30978 | 6953 ft | 260 kts | 168° |
| 2026-04-28 20:05 | 37.23620 | -8.30454 | 6654 ft | 255 kts | 168° |
| 2026-04-28 20:06 | 37.21893 | -8.29973 | 6350 ft | 251 kts | 172° |
| 2026-04-28 20:06 | 37.20188 | -8.29636 | 6077 ft | 246 kts | 173° |
| 2026-04-28 20:06 | 37.18523 | -8.29324 | 5814 ft | 242 kts | 173° |
| 2026-04-28 20:06 | 37.16854 | -8.29014 | 5545 ft | 239 kts | 173° |
| 2026-04-28 20:07 | 37.15200 | -8.28705 | 5277 ft | 241 kts | 173° |
| 2026-04-28 20:07 | 37.14096 | -8.28499 | 5113 ft | 241 kts | 173° |
| 2026-04-28 20:07 | 37.11873 | -8.28084 | 4797 ft | 242 kts | 173° |
| 2026-04-28 20:07 | 37.10218 | -8.27775 | 4594 ft | 241 kts | 173° |
| 2026-04-28 20:08 | 37.08550 | -8.27463 | 4368 ft | 242 kts | 173° |
| 2026-04-28 20:08 | 37.06936 | -8.26981 | 4137 ft | 243 kts | 154° |
| 2026-04-28 20:08 | 37.05664 | -8.25580 | 3877 ft | 246 kts | 121° |
| 2026-04-28 20:08 | 37.05092 | -8.23594 | 3694 ft | 244 kts | 100° |
| 2026-04-28 20:09 | 37.04877 | -8.21488 | 3426 ft | 246 kts | 96° |
| 2026-04-28 20:09 | 37.04677 | -8.19360 | 3153 ft | 249 kts | 97° |
| 2026-04-28 20:09 | 37.04410 | -8.17217 | 2929 ft | 249 kts | 99° |
| 2026-04-28 20:09 | 37.04101 | -8.15072 | 2603 ft | 254 kts | 100° |
| 2026-04-28 20:10 | 37.03778 | -8.12898 | 2238 ft | 254 kts | 100° |
| 2026-04-28 20:10 | 37.03472 | -8.10800 | 1920 ft | 237 kts | 99° |
| 2026-04-28 20:10 | 37.03189 | -8.08833 | 1629 ft | 221 kts | 99° |
| 2026-04-28 20:10 | 37.02928 | -8.06999 | 1353 ft | 208 kts | 100° |
| 2026-04-28 20:11 | 37.02683 | -8.05291 | 1096 ft | 197 kts | 100° |
| 2026-04-28 20:11 | 37.02440 | -8.03590 | 844 ft | 197 kts | 100° |
| 2026-04-28 20:11 | 37.02204 | -8.01934 | 615 ft | 188 kts | 101° |
| 2026-04-28 20:11 | 37.01977 | -8.00349 | 353 ft | 184 kts | 101° |
| 2026-04-28 20:12 | 37.01755 | -7.98787 | 107 ft | 180 kts | 101° |
| 2026-04-28 20:12 | 37.01551 | -7.97352 | 25 ft | 136 kts | 100° |
| 2026-04-28 20:12 | 37.01434 | -7.96512 | 33 ft | 64 kts | 95° |
| 2026-04-28 20:12 | 37.01456 | -7.96244 | 33 ft | 34 kts | 72° |
| 2026-04-28 20:13 | 37.01575 | -7.96098 | 33 ft | 13 kts | 2° |
| 2026-04-28 20:13 | 37.01675 | -7.96084 | 31 ft | 14 kts | 2° |
| 2026-04-28 20:13 | 37.01729 | -7.96142 | 30 ft | 11 kts | 282° |
| 2026-04-28 20:13 | 37.01747 | -7.96252 | 28 ft | 14 kts | 281° |
| 2026-04-28 20:14 | 37.01761 | -7.96380 | 28 ft | 14 kts | 279° |
| 2026-04-28 20:14 | 37.01780 | -7.96500 | 31 ft | 13 kts | 280° |
| 2026-04-28 20:14 | 37.01793 | -7.96593 | 35 ft | 9 kts | 279° |
| 2026-04-28 20:14 | 37.01803 | -7.96666 | 38 ft | 7 kts | 280° |
| 2026-04-28 20:15 | 37.01816 | -7.96727 | 38 ft | 7 kts | 298° |
| 2026-04-28 20:15 | 37.01846 | -7.96768 | 38 ft | 7 kts | 328° |
| 2026-04-28 20:15 | 37.01879 | -7.96775 | 38 ft | 3 kts | 6° |
| 2026-04-28 20:15 | 37.01898 | -7.96772 | 39 ft | 0 kts | 6° |